Cut, Texas
Current Conditions -  °F | °C
As of 12:35 PM on Monday 26 Jan 2015 (Local Time) from KDKR Reporting Station
Clear Clear  
Wind Chill: 64°   Ceiling: Unl
Heat Index: 64°   Visibility: 10mi
Dew Point: 39°   Wind: 5mph
Humidity: 40%   Direction: 290°WNW
Pressure: 30.22"   Gusts: NA
Location:  31.2828°N, 95.4821°W
Report Text: KDKR 261835Z AUTO 29004KT 10SM CLR 18/04 A3022 RMK AO2
Loading
Personal Weather Stations






























Interactive Weather Map New forecast layout! Learn more

10-Day Weather Forecast

Advertisements
Track Severe Weather on mobile